sensor_id;sensor_type;location;lat;lon;timestamp;pressure;altitude;pressure_sealevel;temperature;humidity
20630;BME280;17386;43.846;25.950;2023-07-30T00:00:28;100815.75;;;25.03;nan
20630;BME280;17386;43.846;25.950;2023-07-30T00:02:55;100825.06;;;25.01;nan
20630;BME280;17386;43.846;25.950;2023-07-30T00:05:21;100815.03;;;25.01;nan
20630;BME280;17386;43.846;25.950;2023-07-30T00:07:48;100815.75;;;25.03;nan
20630;BME280;17386;43.846;25.950;2023-07-30T00:10:15;100816.03;;;25.00;nan
20630;BME280;17386;43.846;25.950;2023-07-30T00:12:41;100807.91;;;25.00;nan
20630;BME280;17386;43.846;25.950;2023-07-30T00:15:08;100814.91;;;24.93;nan
20630;BME280;17386;43.846;25.950;2023-07-30T00:17:35;100812.03;;;24.95;nan
20630;BME280;17386;43.846;25.950;2023-07-30T00:20:03;100795.88;;;24.83;nan
20630;BME280;17386;43.846;25.950;2023-07-30T00:22:32;100810.75;;;24.89;nan
20630;BME280;17386;43.846;25.950;2023-07-30T00:24:58;100810.06;;;24.87;nan
20630;BME280;17386;43.846;25.950;2023-07-30T00:27:25;100797.47;;;24.86;nan
20630;BME280;17386;43.846;25.950;2023-07-30T00:29:51;100807.03;;;24.90;nan
20630;BME280;17386;43.846;25.950;2023-07-30T00:32:18;100803.34;;;24.91;nan
20630;BME280;17386;43.846;25.950;2023-07-30T00:34:45;100796.75;;;24.94;nan
20630;BME280;17386;43.846;25.950;2023-07-30T00:37:12;100782.31;;;24.83;nan
20630;BME280;17386;43.846;25.950;2023-07-30T00:39:38;100785.31;;;24.80;nan
20630;BME280;17386;43.846;25.950;2023-07-30T00:42:05;100795.19;;;24.91;nan
20630;BME280;17386;43.846;25.950;2023-07-30T00:44:32;100797.06;;;24.81;nan
20630;BME280;17386;43.846;25.950;2023-07-30T00:46:59;100802.34;;;24.82;nan
20630;BME280;17386;43.846;25.950;2023-07-30T00:49:24;100793.31;;;24.82;nan
20630;BME280;17386;43.846;25.950;2023-07-30T00:51:51;100799.34;;;24.86;nan
20630;BME280;17386;43.846;25.950;2023-07-30T00:54:18;100798.50;;;24.85;nan
20630;BME280;17386;43.846;25.950;2023-07-30T00:56:51;100793.44;;;24.90;nan
20630;BME280;17386;43.846;25.950;2023-07-30T00:59:17;100788.44;;;24.95;nan
20630;BME280;17386;43.846;25.950;2023-07-30T01:01:46;100787.75;;;24.93;nan
20630;BME280;17386;43.846;25.950;2023-07-30T01:04:16;100789.19;;;24.88;nan
20630;BME280;17386;43.846;25.950;2023-07-30T01:06:44;100790.88;;;24.89;nan
20630;BME280;17386;43.846;25.950;2023-07-30T01:09:11;100791.31;;;24.84;nan
20630;BME280;17386;43.846;25.950;2023-07-30T01:11:39;100785.63;;;24.77;nan
20630;BME280;17386;43.846;25.950;2023-07-30T01:14:08;100790.91;;;24.79;nan
20630;BME280;17386;43.846;25.950;2023-07-30T01:16:36;100779.03;;;24.80;nan
20630;BME280;17386;43.846;25.950;2023-07-30T01:19:03;100787.03;;;24.81;nan
20630;BME280;17386;43.846;25.950;2023-07-30T01:21:37;100789.91;;;24.80;nan
20630;BME280;17386;43.846;25.950;2023-07-30T01:24:04;100787.19;;;24.80;nan
20630;BME280;17386;43.846;25.950;2023-07-30T01:26:55;100788.34;;;24.77;nan
20630;BME280;17386;43.846;25.950;2023-07-30T01:29:28;100796.34;;;24.79;nan
20630;BME280;17386;43.846;25.950;2023-07-30T01:32:04;100795.34;;;24.80;nan
20630;BME280;17386;43.846;25.950;2023-07-30T01:34:35;100787.75;;;24.83;nan
20630;BME280;17386;43.846;25.950;2023-07-30T01:37:03;100787.03;;;24.81;nan
20630;BME280;17386;43.846;25.950;2023-07-30T01:39:31;100794.03;;;24.84;nan
20630;BME280;17386;43.846;25.950;2023-07-30T01:41:59;100790.59;;;24.82;nan
20630;BME280;17386;43.846;25.950;2023-07-30T01:44:25;100796.34;;;24.79;nan
20630;BME280;17386;43.846;25.950;2023-07-30T01:46:52;100789.31;;;24.76;nan
20630;BME280;17386;43.846;25.950;2023-07-30T01:49:19;100796.78;;;24.74;nan
20630;BME280;17386;43.846;25.950;2023-07-30T01:51:46;100793.50;;;24.71;nan
20630;BME280;17386;43.846;25.950;2023-07-30T01:54:12;100780.19;;;24.68;nan
20630;BME280;17386;43.846;25.950;2023-07-30T01:56:39;100785.63;;;24.68;nan
20630;BME280;17386;43.846;25.950;2023-07-30T01:59:06;100794.06;;;24.65;nan
20630;BME280;17386;43.846;25.950;2023-07-30T02:01:32;100787.91;;;24.63;nan
20630;BME280;17386;43.846;25.950;2023-07-30T02:03:58;100788.06;;;24.61;nan
20630;BME280;17386;43.846;25.950;2023-07-30T02:06:25;100786.22;;;24.52;nan
20630;BME280;17386;43.846;25.950;2023-07-30T02:08:51;100789.19;;;24.49;nan
20630;BME280;17386;43.846;25.950;2023-07-30T02:11:18;100794.63;;;24.49;nan
20630;BME280;17386;43.846;25.950;2023-07-30T02:13:44;100795.78;;;24.46;nan
20630;BME280;17386;43.846;25.950;2023-07-30T02:16:14;100795.19;;;24.43;nan
20630;BME280;17386;43.846;25.950;2023-07-30T02:18:40;100788.50;;;24.37;nan
20630;BME280;17386;43.846;25.950;2023-07-30T02:21:07;100791.75;;;24.31;nan
20630;BME280;17386;43.846;25.950;2023-07-30T02:23:34;100784.19;;;24.25;nan
20630;BME280;17386;43.846;25.950;2023-07-30T02:26:00;100798.88;;;24.22;nan
20630;BME280;17386;43.846;25.950;2023-07-30T02:28:27;100793.75;;;24.19;nan
20630;BME280;17386;43.846;25.950;2023-07-30T02:30:54;100795.00;;;24.15;nan
20630;BME280;17386;43.846;25.950;2023-07-30T02:33:21;100793.59;;;24.11;nan
20630;BME280;17386;43.846;25.950;2023-07-30T02:35:47;100799.28;;;23.98;nan
20630;BME280;17386;43.846;25.950;2023-07-30T02:38:14;100795.56;;;23.90;nan
20630;BME280;17386;43.846;25.950;2023-07-30T02:40:41;100802.25;;;23.86;nan
20630;BME280;17386;43.846;25.950;2023-07-30T02:43:07;100808.22;;;23.80;nan
20630;BME280;17386;43.846;25.950;2023-07-30T02:45:34;100809.38;;;23.77;nan
20630;BME280;17386;43.846;25.950;2023-07-30T02:48:01;100797.50;;;23.68;nan
20630;BME280;17386;43.846;25.950;2023-07-30T02:50:27;100808.59;;;23.65;nan
20630;BME280;17386;43.846;25.950;2023-07-30T02:52:54;100820.81;;;23.60;nan
20630;BME280;17386;43.846;25.950;2023-07-30T02:55:20;100819.09;;;23.59;nan
20630;BME280;17386;43.846;25.950;2023-07-30T02:57:47;100820.41;;;23.55;nan
20630;BME280;17386;43.846;25.950;2023-07-30T03:00:14;100815.78;;;23.45;nan
20630;BME280;17386;43.846;25.950;2023-07-30T03:02:40;100807.63;;;23.45;nan
20630;BME280;17386;43.846;25.950;2023-07-30T03:05:08;100810.09;;;23.48;nan
20630;BME280;17386;43.846;25.950;2023-07-30T03:07:35;100820.41;;;23.55;nan
20630;BME280;17386;43.846;25.950;2023-07-30T03:10:02;100826.25;;;23.60;nan
20630;BME280;17386;43.846;25.950;2023-07-30T03:12:28;100828.72;;;23.63;nan
20630;BME280;17386;43.846;25.950;2023-07-30T03:14:55;100823.16;;;23.64;nan
20630;BME280;17386;43.846;25.950;2023-07-30T03:17:22;100829.44;;;23.65;nan
20630;BME280;17386;43.846;25.950;2023-07-30T03:19:49;100830.59;;;23.62;nan
20630;BME280;17386;43.846;25.950;2023-07-30T03:22:15;100827.88;;;23.62;nan
20630;BME280;17386;43.846;25.950;2023-07-30T03:24:45;100832.31;;;23.63;nan
20630;BME280;17386;43.846;25.950;2023-07-30T03:27:12;100827.75;;;23.64;nan
20630;BME280;17386;43.846;25.950;2023-07-30T03:29:39;100843.16;;;23.63;nan
20630;BME280;17386;43.846;25.950;2023-07-30T03:32:06;100839.72;;;23.61;nan
20630;BME280;17386;43.846;25.950;2023-07-30T03:34:32;100834.53;;;23.58;nan
20630;BME280;17386;43.846;25.950;2023-07-30T03:36:59;100840.50;;;23.52;nan
20630;BME280;17386;43.846;25.950;2023-07-30T03:39:26;100845.34;;;23.48;nan
20630;BME280;17386;43.846;25.950;2023-07-30T03:41:53;100842.63;;;23.48;nan
20630;BME280;17386;43.846;25.950;2023-07-30T03:44:19;100852.63;;;23.48;nan
20630;BME280;17386;43.846;25.950;2023-07-30T03:46:46;100843.88;;;23.44;nan
20630;BME280;17386;43.846;25.950;2023-07-30T03:49:12;100854.34;;;23.49;nan
20630;BME280;17386;43.846;25.950;2023-07-30T03:51:40;100858.03;;;23.48;nan
20630;BME280;17386;43.846;25.950;2023-07-30T03:54:07;100859.03;;;23.47;nan
20630;BME280;17386;43.846;25.950;2023-07-30T03:56:34;100859.28;;;23.44;nan
20630;BME280;17386;43.846;25.950;2023-07-30T03:59:00;100859.56;;;23.41;nan
20630;BME280;17386;43.846;25.950;2023-07-30T04:01:28;100854.25;;;23.39;nan
20630;BME280;17386;43.846;25.950;2023-07-30T04:03:55;100846.28;;;23.38;nan
20630;BME280;17386;43.846;25.950;2023-07-30T04:06:22;100863.16;;;23.41;nan
20630;BME280;17386;43.846;25.950;2023-07-30T04:08:49;100856.44;;;23.45;nan
20630;BME280;17386;43.846;25.950;2023-07-30T04:11:16;100863.31;;;23.50;nan
20630;BME280;17386;43.846;25.950;2023-07-30T04:13:42;100866.59;;;23.53;nan
20630;BME280;17386;43.846;25.950;2023-07-30T04:16:09;100875.19;;;23.58;nan
20630;BME280;17386;43.846;25.950;2023-07-30T04:18:35;100871.41;;;23.61;nan
20630;BME280;17386;43.846;25.950;2023-07-30T04:21:03;100873.19;;;23.60;nan
20630;BME280;17386;43.846;25.950;2023-07-30T04:23:29;100866.91;;;23.60;nan
20630;BME280;17386;43.846;25.950;2023-07-30T04:25:56;100876.69;;;23.62;nan
20630;BME280;17386;43.846;25.950;2023-07-30T04:28:22;100870.13;;;23.65;nan
20630;BME280;17386;43.846;25.950;2023-07-30T04:30:49;100867.41;;;23.65;nan
20630;BME280;17386;43.846;25.950;2023-07-30T04:33:16;100857.56;;;23.64;nan
20630;BME280;17386;43.846;25.950;2023-07-30T04:35:42;100867.56;;;23.63;nan
20630;BME280;17386;43.846;25.950;2023-07-30T04:38:09;100878.56;;;23.62;nan
20630;BME280;17386;43.846;25.950;2023-07-30T04:40:35;100874.50;;;23.56;nan
20630;BME280;17386;43.846;25.950;2023-07-30T04:43:02;100881.63;;;23.57;nan
20630;BME280;17386;43.846;25.950;2023-07-30T04:45:29;100882.25;;;23.61;nan
20630;BME280;17386;43.846;25.950;2023-07-30T04:47:54;100882.34;;;23.59;nan
20630;BME280;17386;43.846;25.950;2023-07-30T04:50:20;100875.06;;;23.60;nan
20630;BME280;17386;43.846;25.950;2023-07-30T04:52:47;100878.72;;;23.70;nan
20630;BME280;17386;43.846;25.950;2023-07-30T04:55:14;100881.31;;;23.81;nan
20630;BME280;17386;43.846;25.950;2023-07-30T04:57:42;100883.38;;;23.89;nan
20630;BME280;17386;43.846;25.950;2023-07-30T05:00:10;100879.84;;;23.98;nan
20630;BME280;17386;43.846;25.950;2023-07-30T05:02:37;100885.28;;;24.08;nan
20630;BME280;17386;43.846;25.950;2023-07-30T05:05:04;100882.88;;;24.14;nan
20630;BME280;17386;43.846;25.950;2023-07-30T05:07:29;100885.16;;;24.09;nan
20630;BME280;17386;43.846;25.950;2023-07-30T05:09:57;100894.88;;;24.12;nan
20630;BME280;17386;43.846;25.950;2023-07-30T05:12:25;100891.25;;;24.01;nan
20630;BME280;17386;43.846;25.950;2023-07-30T05:14:52;100898.44;;;24.12;nan
20630;BME280;17386;43.846;25.950;2023-07-30T05:17:18;100895.63;;;24.23;nan
20630;BME280;17386;43.846;25.950;2023-07-30T05:19:45;100901.69;;;24.37;nan
20630;BME280;17386;43.846;25.950;2023-07-30T05:22:11;100900.31;;;24.21;nan
20630;BME280;17386;43.846;25.950;2023-07-30T05:24:37;100899.19;;;24.24;nan
20630;BME280;17386;43.846;25.950;2023-07-30T05:27:04;100893.03;;;24.22;nan
20630;BME280;17386;43.846;25.950;2023-07-30T05:29:29;100902.06;;;24.32;nan
20630;BME280;17386;43.846;25.950;2023-07-30T05:31:55;100904.13;;;24.40;nan
20630;BME280;17386;43.846;25.950;2023-07-30T05:34:22;100902.31;;;24.29;nan
20630;BME280;17386;43.846;25.950;2023-07-30T05:36:48;100895.88;;;24.20;nan
20630;BME280;17386;43.846;25.950;2023-07-30T05:39:15;100900.84;;;24.06;nan
20630;BME280;17386;43.846;25.950;2023-07-30T05:41:40;100905.03;;;24.19;nan
20630;BME280;17386;43.846;25.950;2023-07-30T05:44:08;100898.50;;;24.32;nan
20630;BME280;17386;43.846;25.950;2023-07-30T05:46:35;100893.25;;;24.40;nan
20630;BME280;17386;43.846;25.950;2023-07-30T05:49:00;100896.25;;;24.46;nan
20630;BME280;17386;43.846;25.950;2023-07-30T05:51:27;100891.13;;;24.63;nan
20630;BME280;17386;43.846;25.950;2023-07-30T05:53:54;100893.28;;;24.69;nan
20630;BME280;17386;43.846;25.950;2023-07-30T05:56:20;100890.28;;;24.81;nan
20630;BME280;17386;43.846;25.950;2023-07-30T05:58:47;100903.72;;;24.83;nan
20630;BME280;17386;43.846;25.950;2023-07-30T06:01:14;100905.16;;;24.97;nan
20630;BME280;17386;43.846;25.950;2023-07-30T06:03:40;100904.63;;;25.13;nan
20630;BME280;17386;43.846;25.950;2023-07-30T06:06:07;100904.16;;;25.17;nan
20630;BME280;17386;43.846;25.950;2023-07-30T06:08:33;100903.16;;;25.18;nan
20630;BME280;17386;43.846;25.950;2023-07-30T06:11:03;100892.88;;;25.22;nan
20630;BME280;17386;43.846;25.950;2023-07-30T06:13:30;100895.13;;;25.36;nan
20630;BME280;17386;43.846;25.950;2023-07-30T06:15:56;100891.78;;;25.52;nan
20630;BME280;17386;43.846;25.950;2023-07-30T06:18:24;100906.22;;;25.52;nan
20630;BME280;17386;43.846;25.950;2023-07-30T06:20:51;100898.47;;;25.67;nan
20630;BME280;17386;43.846;25.950;2023-07-30T06:23:18;100900.34;;;25.76;nan
20630;BME280;17386;43.846;25.950;2023-07-30T06:25:44;100893.53;;;25.90;nan
20630;BME280;17386;43.846;25.950;2023-07-30T06:28:11;100885.88;;;26.03;nan
20630;BME280;17386;43.846;25.950;2023-07-30T06:30:39;100893.84;;;26.14;nan
20630;BME280;17386;43.846;25.950;2023-07-30T06:33:05;100890.97;;;26.16;nan
20630;BME280;17386;43.846;25.950;2023-07-30T06:35:32;100887.69;;;25.85;nan
20630;BME280;17386;43.846;25.950;2023-07-30T06:37:58;100900.44;;;26.12;nan
20630;BME280;17386;43.846;25.950;2023-07-30T06:40:24;100888.75;;;26.29;nan
20630;BME280;17386;43.846;25.950;2023-07-30T06:42:50;100887.94;;;26.47;nan
20630;BME280;17386;43.846;25.950;2023-07-30T06:45:17;100891.22;;;26.50;nan
20630;BME280;17386;43.846;25.950;2023-07-30T06:47:44;100880.25;;;26.60;nan
20630;BME280;17386;43.846;25.950;2023-07-30T06:50:12;100882.44;;;26.74;nan
20630;BME280;17386;43.846;25.950;2023-07-30T06:52:38;100886.41;;;26.80;nan
20630;BME280;17386;43.846;25.950;2023-07-30T06:55:05;100879.47;;;26.85;nan
20630;BME280;17386;43.846;25.950;2023-07-30T06:57:32;100881.09;;;26.96;nan
20630;BME280;17386;43.846;25.950;2023-07-30T06:59:58;100886.06;;;27.00;nan
20630;BME280;17386;43.846;25.950;2023-07-30T07:02:29;100882.09;;;26.95;nan
20630;BME280;17386;43.846;25.950;2023-07-30T07:04:55;100869.88;;;26.99;nan
20630;BME280;17386;43.846;25.950;2023-07-30T07:07:21;100866.75;;;26.94;nan
20630;BME280;17386;43.846;25.950;2023-07-30T07:09:48;100870.13;;;27.06;nan
20630;BME280;17386;43.846;25.950;2023-07-30T07:12:14;100871.28;;;27.21;nan
20630;BME280;17386;43.846;25.950;2023-07-30T07:14:41;100862.75;;;27.24;nan
20630;BME280;17386;43.846;25.950;2023-07-30T07:17:09;100864.13;;;27.46;nan
20630;BME280;17386;43.846;25.950;2023-07-30T07:19:35;100864.56;;;27.67;nan
20630;BME280;17386;43.846;25.950;2023-07-30T07:22:04;100864.69;;;27.84;nan
20630;BME280;17386;43.846;25.950;2023-07-30T07:24:31;100851.59;;;27.95;nan
20630;BME280;17386;43.846;25.950;2023-07-30T07:26:58;100860.19;;;28.08;nan
20630;BME280;17386;43.846;25.950;2023-07-30T07:29:24;100857.97;;;28.12;nan
20630;BME280;17386;43.846;25.950;2023-07-30T07:31:51;100858.31;;;28.17;nan
20630;BME280;17386;43.846;25.950;2023-07-30T07:34:17;100850.53;;;28.30;nan
20630;BME280;17386;43.846;25.950;2023-07-30T07:36:44;100851.94;;;28.43;nan
20630;BME280;17386;43.846;25.950;2023-07-30T07:39:09;100844.09;;;28.56;nan
20630;BME280;17386;43.846;25.950;2023-07-30T07:41:36;100846.50;;;28.67;nan
20630;BME280;17386;43.846;25.950;2023-07-30T07:44:03;100840.00;;;28.68;nan
20630;BME280;17386;43.846;25.950;2023-07-30T07:46:30;100846.00;;;28.72;nan
20630;BME280;17386;43.846;25.950;2023-07-30T07:48:55;100836.75;;;28.81;nan
20630;BME280;17386;43.846;25.950;2023-07-30T07:51:21;100846.53;;;29.00;nan
20630;BME280;17386;43.846;25.950;2023-07-30T07:53:46;100847.72;;;29.13;nan
20630;BME280;17386;43.846;25.950;2023-07-30T07:56:11;100838.31;;;29.24;nan
20630;BME280;17386;43.846;25.950;2023-07-30T07:58:38;100843.41;;;29.35;nan
20630;BME280;17386;43.846;25.950;2023-07-30T08:01:05;100842.22;;;29.38;nan
20630;BME280;17386;43.846;25.950;2023-07-30T08:03:31;100835.56;;;29.32;nan
20630;BME280;17386;43.846;25.950;2023-07-30T08:05:58;100839.09;;;29.49;nan
20630;BME280;17386;43.846;25.950;2023-07-30T08:08:25;100833.59;;;29.65;nan
20630;BME280;17386;43.846;25.950;2023-07-30T08:10:53;100826.53;;;29.71;nan
20630;BME280;17386;43.846;25.950;2023-07-30T08:13:20;100822.94;;;29.79;nan
20630;BME280;17386;43.846;25.950;2023-07-30T08:15:47;100825.22;;;29.98;nan
20630;BME280;17386;43.846;25.950;2023-07-30T08:18:13;100827.63;;;30.01;nan
20630;BME280;17386;43.846;25.950;2023-07-30T08:20:40;100823.84;;;30.10;nan
20630;BME280;17386;43.846;25.950;2023-07-30T08:23:07;100826.06;;;30.07;nan
20630;BME280;17386;43.846;25.950;2023-07-30T08:25:32;100829.50;;;30.01;nan
20630;BME280;17386;43.846;25.950;2023-07-30T08:27:58;100824.00;;;30.09;nan
20630;BME280;17386;43.846;25.950;2023-07-30T08:30:24;100825.63;;;30.26;nan
20630;BME280;17386;43.846;25.950;2023-07-30T08:32:51;100821.56;;;30.45;nan
20630;BME280;17386;43.846;25.950;2023-07-30T08:35:16;100822.47;;;30.60;nan
20630;BME280;17386;43.846;25.950;2023-07-30T08:37:43;100827.38;;;30.73;nan
20630;BME280;17386;43.846;25.950;2023-07-30T08:40:08;100818.06;;;30.82;nan
20630;BME280;17386;43.846;25.950;2023-07-30T08:42:34;100812.94;;;30.94;nan
20630;BME280;17386;43.846;25.950;2023-07-30T08:45:00;100802.94;;;31.01;nan
20630;BME280;17386;43.846;25.950;2023-07-30T08:47:26;100800.41;;;31.14;nan
20630;BME280;17386;43.846;25.950;2023-07-30T08:49:51;100799.25;;;31.31;nan
20630;BME280;17386;43.846;25.950;2023-07-30T08:52:17;100800.47;;;31.44;nan
20630;BME280;17386;43.846;25.950;2023-07-30T08:54:46;100796.94;;;31.35;nan
20630;BME280;17386;43.846;25.950;2023-07-30T08:57:16;100797.16;;;31.48;nan
20630;BME280;17386;43.846;25.950;2023-07-30T08:59:50;100787.94;;;31.56;nan
20630;BME280;17386;43.846;25.950;2023-07-30T09:02:37;100791.19;;;31.59;nan
20630;BME280;17386;43.846;25.950;2023-07-30T09:05:05;100787.38;;;31.75;nan
20630;BME280;17386;43.846;25.950;2023-07-30T09:07:32;100787.00;;;31.93;nan
20630;BME280;17386;43.846;25.950;2023-07-30T09:09:58;100788.44;;;32.10;nan
20630;BME280;17386;43.846;25.950;2023-07-30T09:12:43;100791.56;;;32.22;nan
20630;BME280;17386;43.846;25.950;2023-07-30T09:15:08;100783.56;;;32.06;nan
20630;BME280;17386;43.846;25.950;2023-07-30T09:17:34;100786.88;;;32.01;nan
20630;BME280;17386;43.846;25.950;2023-07-30T09:20:01;100782.31;;;32.08;nan
20630;BME280;17386;43.846;25.950;2023-07-30T09:22:31;100783.81;;;32.11;nan
20630;BME280;17386;43.846;25.950;2023-07-30T09:25:07;100770.63;;;32.21;nan
20630;BME280;17386;43.846;25.950;2023-07-30T09:27:33;100769.16;;;32.25;nan
20630;BME280;17386;43.846;25.950;2023-07-30T09:30:00;100765.94;;;32.36;nan
20630;BME280;17386;43.846;25.950;2023-07-30T09:32:29;100764.38;;;32.49;nan
20630;BME280;17386;43.846;25.950;2023-07-30T09:35:16;100763.44;;;32.63;nan
20630;BME280;17386;43.846;25.950;2023-07-30T09:37:42;100751.63;;;32.69;nan
20630;BME280;17386;43.846;25.950;2023-07-30T09:40:12;100760.75;;;32.70;nan
20630;BME280;17386;43.846;25.950;2023-07-30T09:42:44;100754.78;;;32.87;nan
20630;BME280;17386;43.846;25.950;2023-07-30T09:45:23;100758.66;;;33.00;nan
20630;BME280;17386;43.846;25.950;2023-07-30T09:47:51;100750.44;;;33.06;nan
20630;BME280;17386;43.846;25.950;2023-07-30T09:50:19;100757.47;;;33.09;nan
20630;BME280;17386;43.846;25.950;2023-07-30T09:52:46;100756.31;;;33.25;nan
20630;BME280;17386;43.846;25.950;2023-07-30T09:55:12;100755.34;;;33.39;nan
20630;BME280;17386;43.846;25.950;2023-07-30T09:57:39;100748.44;;;33.50;nan
20630;BME280;17386;43.846;25.950;2023-07-30T10:00:06;100737.06;;;33.72;nan
20630;BME280;17386;43.846;25.950;2023-07-30T10:02:39;100738.75;;;33.67;nan
20630;BME280;17386;43.846;25.950;2023-07-30T10:05:20;100732.66;;;33.78;nan
20630;BME280;17386;43.846;25.950;2023-07-30T10:08:24;100729.75;;;33.93;nan
20630;BME280;17386;43.846;25.950;2023-07-30T10:10:53;100726.63;;;34.22;nan
20630;BME280;17386;43.846;25.950;2023-07-30T10:13:21;100719.03;;;34.64;nan
20630;BME280;17386;43.846;25.950;2023-07-30T10:15:48;100714.78;;;35.08;nan
20630;BME280;17386;43.846;25.950;2023-07-30T10:18:14;100710.38;;;35.58;nan
20630;BME280;17386;43.846;25.950;2023-07-30T10:20:51;100714.16;;;36.40;nan
20630;BME280;17386;43.846;25.950;2023-07-30T10:23:20;100698.09;;;36.99;nan
20630;BME280;17386;43.846;25.950;2023-07-30T10:25:49;100713.56;;;37.25;nan
20630;BME280;17386;43.846;25.950;2023-07-30T10:28:33;100710.25;;;37.71;nan
20630;BME280;17386;43.846;25.950;2023-07-30T10:31:05;100704.47;;;37.91;nan
20630;BME280;17386;43.846;25.950;2023-07-30T10:33:53;100697.13;;;38.62;nan
20630;BME280;17386;43.846;25.950;2023-07-30T10:36:46;100695.41;;;39.43;nan
20630;BME280;17386;43.846;25.950;2023-07-30T10:39:27;100702.34;;;39.29;nan
20630;BME280;17386;43.846;25.950;2023-07-30T10:41:56;100695.16;;;39.85;nan
20630;BME280;17386;43.846;25.950;2023-07-30T10:44:32;59141.97;;;-143.98;100.00
20630;BME280;17386;43.846;25.950;2023-07-30T10:47:00;59141.97;;;-143.98;100.00
20630;BME280;17386;43.846;25.950;2023-07-30T10:49:27;59141.97;;;-143.98;100.00
20630;BME280;17386;43.846;25.950;2023-07-30T10:51:55;59141.97;;;-143.98;100.00
20630;BME280;17386;43.846;25.950;2023-07-30T10:54:23;59141.97;;;-143.98;100.00
20630;BME280;17386;43.846;25.950;2023-07-30T10:56:51;59141.97;;;-143.98;100.00
20630;BME280;17386;43.846;25.950;2023-07-30T10:59:19;59141.97;;;-143.98;100.00
20630;BME280;17386;43.846;25.950;2023-07-30T11:01:45;59141.97;;;-143.98;100.00
20630;BME280;17386;43.846;25.950;2023-07-30T11:04:14;59141.97;;;-143.98;100.00
20630;BME280;17386;43.846;25.950;2023-07-30T11:06:49;59141.97;;;-143.98;100.00
20630;BME280;17386;43.846;25.950;2023-07-30T11:09:23;59141.97;;;-143.98;100.00
20630;BME280;17386;43.846;25.950;2023-07-30T11:11:52;59141.97;;;-143.98;100.00
20630;BME280;17386;43.846;25.950;2023-07-30T11:14:23;59141.97;;;-143.98;100.00
20630;BME280;17386;43.846;25.950;2023-07-30T11:16:57;59141.97;;;-143.98;100.00
20630;BME280;17386;43.846;25.950;2023-07-30T11:19:29;59141.97;;;-143.98;100.00
20630;BME280;17386;43.846;25.950;2023-07-30T11:21:57;59141.97;;;-143.98;100.00
20630;BME280;17386;43.846;25.950;2023-07-30T11:24:44;59141.97;;;-143.98;100.00
20630;BME280;17386;43.846;25.950;2023-07-30T11:27:10;59141.97;;;-143.98;100.00
20630;BME280;17386;43.846;25.950;2023-07-30T11:29:37;59141.97;;;-143.98;100.00
20630;BME280;17386;43.846;25.950;2023-07-30T11:32:04;59141.97;;;-143.98;100.00
20630;BME280;17386;43.846;25.950;2023-07-30T11:34:35;59141.97;;;-143.98;100.00
20630;BME280;17386;43.846;25.950;2023-07-30T11:37:05;59141.97;;;-143.98;100.00
20630;BME280;17386;43.846;25.950;2023-07-30T11:39:32;100633.25;;;39.09;nan
20630;BME280;17386;43.846;25.950;2023-07-30T11:42:00;100631.81;;;38.24;nan
20630;BME280;17386;43.846;25.950;2023-07-30T11:44:36;100626.22;;;37.89;nan
20630;BME280;17386;43.846;25.950;2023-07-30T11:47:06;100614.31;;;37.70;nan
20630;BME280;17386;43.846;25.950;2023-07-30T11:49:34;100619.56;;;37.60;nan
20630;BME280;17386;43.846;25.950;2023-07-30T11:52:09;100617.47;;;37.44;nan
20630;BME280;17386;43.846;25.950;2023-07-30T11:54:36;100617.25;;;37.27;nan
20630;BME280;17386;43.846;25.950;2023-07-30T11:57:02;100607.03;;;37.09;nan
20630;BME280;17386;43.846;25.950;2023-07-30T11:59:32;100610.47;;;36.68;nan
20630;BME280;17386;43.846;25.950;2023-07-30T12:01:59;100608.84;;;36.60;nan
20630;BME280;17386;43.846;25.950;2023-07-30T12:04:31;100599.59;;;36.23;nan
20630;BME280;17386;43.846;25.950;2023-07-30T12:06:57;100587.28;;;35.94;nan
20630;BME280;17386;43.846;25.950;2023-07-30T12:09:24;100583.75;;;35.80;nan
20630;BME280;17386;43.846;25.950;2023-07-30T12:11:59;100588.84;;;35.83;nan
20630;BME280;17386;43.846;25.950;2023-07-30T12:14:29;100584.16;;;35.91;nan
20630;BME280;17386;43.846;25.950;2023-07-30T12:17:03;100592.53;;;36.02;nan
20630;BME280;17386;43.846;25.950;2023-07-30T12:19:29;100584.41;;;36.07;nan
20630;BME280;17386;43.846;25.950;2023-07-30T12:21:56;100570.53;;;36.14;nan
20630;BME280;17386;43.846;25.950;2023-07-30T12:24:23;100572.00;;;36.16;nan
20630;BME280;17386;43.846;25.950;2023-07-30T12:26:52;100570.47;;;36.21;nan
20630;BME280;17386;43.846;25.950;2023-07-30T12:29:19;100565.78;;;36.21;nan
20630;BME280;17386;43.846;25.950;2023-07-30T12:31:44;100566.59;;;36.03;nan
20630;BME280;17386;43.846;25.950;2023-07-30T12:34:12;100567.59;;;36.09;nan
20630;BME280;17386;43.846;25.950;2023-07-30T12:36:39;100569.69;;;35.82;nan
20630;BME280;17386;43.846;25.950;2023-07-30T12:39:05;100557.69;;;35.70;nan
20630;BME280;17386;43.846;25.950;2023-07-30T12:41:32;100554.56;;;35.28;nan
20630;BME280;17386;43.846;25.950;2023-07-30T12:43:57;100550.63;;;35.49;nan
20630;BME280;17386;43.846;25.950;2023-07-30T12:46:24;100546.69;;;35.63;nan
20630;BME280;17386;43.846;25.950;2023-07-30T12:48:51;100538.50;;;35.50;nan
20630;BME280;17386;43.846;25.950;2023-07-30T12:51:18;100537.78;;;35.61;nan
20630;BME280;17386;43.846;25.950;2023-07-30T12:53:45;100534.34;;;35.66;nan
20630;BME280;17386;43.846;25.950;2023-07-30T12:56:11;100530.69;;;35.72;nan
20630;BME280;17386;43.846;25.950;2023-07-30T12:58:38;100528.31;;;35.75;nan
20630;BME280;17386;43.846;25.950;2023-07-30T13:01:06;100532.00;;;35.69;nan